Time;durP1;ratioP1;P1;durP2;ratioP2;P2;SDS_P1;SDS_P2;PMS_P1;PMS_P2;Temp;Humidity;BMP_temperature;BMP_pressure;BME280_temperature;BME280_humidity;BME280_pressure;Samples;Min_cycle;Max_cycle;Signal;HPM_P1;HPM_P2
2024/03/10 00:00:39;;;;;;;;;;;;;;;;;;5046891;28;4464;-61
2024/03/10 00:03:05;;;;;;;;;;;;;;;;;;5046708;28;5055;-61
2024/03/10 00:05:31;;;;;;;;;;;;;;;;;;5041353;28;3665;-61
2024/03/10 00:07:56;;;;;;;;;;;;;;;;;;5026610;28;5071;-61
2024/03/10 00:10:22;;;;;;;;;;;;;;;;;;5033021;28;5051;-61
2024/03/10 00:12:48;;;;;;;;;;;;;;;;;;5042293;28;4874;-61
2024/03/10 00:15:15;;;;;;;;;;;;;;;;;;5047702;28;5186;-61
2024/03/10 00:17:41;;;;;;;;;;;;;;;;;;5043620;28;4147;-61
2024/03/10 00:20:08;;;;;;;;;;;;;;;;;;5046530;28;4925;-61
2024/03/10 00:22:33;;;;;;;;;;;;;;;;;;5042361;28;5133;-61
2024/03/10 00:24:59;;;;;;;;;;;;;;;;;;5046047;28;5101;-61
2024/03/10 00:27:24;;;;;;;;;;;;;;;;;;5042170;28;5149;-62
2024/03/10 00:29:50;;;;;;;;;;;;;;;;;;5039366;28;3475;-61
2024/03/10 00:32:15;;;;;;;;;;;;;;;;;;5046809;28;5100;-61
2024/03/10 00:34:42;;;;;;;;;;;;;;;;;;5045757;28;5103;-61
2024/03/10 00:37:07;;;;;;;;;;;;;;;;;;5040716;28;5027;-62
2024/03/10 00:39:32;;;;;;;;;;;;;;;;;;5038751;28;4624;-62
2024/03/10 00:41:58;;;;;;;;;;;;;;;;;;5039690;28;5145;-62
2024/03/10 00:44:23;;;;;;;;;;;;;;;;;;5040090;28;3765;-61
2024/03/10 00:46:48;;;;;;;;;;;;;;;;;;5045606;28;5131;-61
2024/03/10 00:49:14;;;;;;;;;;;;;;;;;;5039873;28;5067;-60
2024/03/10 00:51:41;;;;;;;;;;;;;;;;;;5045242;28;5251;-60
2024/03/10 00:54:07;;;;;;;;;;;;;;;;;;5042298;28;4562;-60
2024/03/10 00:56:32;;;;;;;;;;;;;;;;;;5041728;28;3817;-60
2024/03/10 00:58:58;;;;;;;;;;;;;;;;;;5052023;28;5111;-60
2024/03/10 01:01:23;;;;;;;;;;;;;;;;;;5044046;28;4719;-60
2024/03/10 01:03:49;;;;;;;;;;;;;;;;;;5058168;28;4596;-60
2024/03/10 01:06:14;;;;;;;;;;;;;;;;;;5047712;28;4547;-62
2024/03/10 01:08:40;;;;;;;;;;;;;;;;;;5040546;28;3674;-62
2024/03/10 01:11:06;;;;;;;;;;;;;;;;;;5033072;28;5034;-62
2024/03/10 01:13:31;;;;;;;;;;;;;;;;;;5028244;28;5191;-62
2024/03/10 01:15:56;;;;;;;;;;;;;;;;;;5026963;28;4946;-62
2024/03/10 01:18:22;;;;;;;;;;;;;;;;;;5037480;28;5148;-59
2024/03/10 01:20:48;;;;;;;;;;;;;;;;;;5034166;28;3587;-60
2024/03/10 01:23:13;;;;;;;;;;;;;;;;;;5028147;28;4725;-60
2024/03/10 01:25:39;;;;;;;;;;;;;;;;;;5034417;28;4986;-60
2024/03/10 01:28:05;;;;;;;;;;;;;;;;;;5033420;28;4588;-60
2024/03/10 01:30:31;;;;;;;;;;;;;;;;;;5028697;28;4965;-60
2024/03/10 01:32:57;;;;;;;;;;;;;;;;;;5016109;28;3422;-60
2024/03/10 01:35:24;;;;;;;;;;;;;;;;;;5012934;28;5065;-60
2024/03/10 01:37:49;;;;;;;;;;;;;;;;;;5031559;28;4657;-60
2024/03/10 01:40:14;;;;;;;;;;;;;;;;;;5027956;28;5040;-60
2024/03/10 01:42:40;;;;;;;;;;;;;;;;;;5030476;28;4635;-60
2024/03/10 01:45:05;;;;;;;;;;;;;;;;;;5037567;28;5304;-60
2024/03/10 01:47:31;;;;;;;;;;;;;;;;;;5046252;28;1150;-59
2024/03/10 01:49:56;;;;;;;;;;;;;;;;;;5044008;28;5119;-60
2024/03/10 01:52:22;;;;;;;;;;;;;;;;;;5051252;28;5234;-60
2024/03/10 01:54:47;;;;;;;;;;;;;;;;;;5033555;28;5051;-60
2024/03/10 01:57:14;;;;;;;;;;;;;;;;;;5040581;28;5197;-59
2024/03/10 01:59:39;;;;;;;;;;;;;;;;;;5039400;28;3478;-60
2024/03/10 02:02:05;;;;;;;;;;;;;;;;;;5051648;28;4995;-60
2024/03/10 02:04:30;;;;;;;;;;;;;;;;;;5040631;28;5083;-60
2024/03/10 02:06:55;;;;;;;;;;;;;;;;;;5035048;28;5034;-60
2024/03/10 02:09:21;;;;;;;;;;;;;;;;;;5049775;28;5095;-60
2024/03/10 02:11:46;;;;;;;;;;;;;;;;;;5028856;28;3358;-60
2024/03/10 02:14:11;;;;;;;;;;;;;;;;;;5070663;28;4502;-60
2024/03/10 02:16:37;;;;;;;;;;;;;;;;;;5020062;28;5144;-60
2024/03/10 02:19:03;;;;;;;;;;;;;;;;;;5045707;28;5188;-60
2024/03/10 02:21:28;;;;;;;;;;;;;;;;;;5053127;28;4776;-59
2024/03/10 02:24:12;;;;;;;;;;;;;;;;;;5052615;28;3633;-60
2024/03/10 02:26:41;;;;;;;;;;;;;;;;;;5054542;28;5950;-59
2024/03/10 02:29:15;;;;;;;;;;;;;;;;;;5053398;28;5088;-60
2024/03/10 02:48:09;;;;;;;;;;;;;;;;;;5044127;28;5069;-59
2024/03/10 02:50:34;;;;;;;;;;;;;;;;;;5041935;28;3612;-59
2024/03/10 02:53:00;;;;;;;;;;;;;;;;;;5045428;28;5181;-60
2024/03/10 02:55:26;;;;;;;;;;;;;;;;;;5045559;28;4623;-61
2024/03/10 02:57:52;;;;;;;;;;;;;;;;;;5050131;28;5175;-61
2024/03/10 03:00:18;;;;;;;;;;;;;;;;;;5056825;28;4863;-59
2024/03/10 03:02:43;;;;;;;;;;;;;;;;;;5046363;28;3407;-61
2024/03/10 03:05:08;;;;;;;;;;;;;;;;;;5049267;28;5147;-59
2024/03/10 03:07:34;;;;;;;;;;;;;;;;;;5048421;28;5181;-60
2024/03/10 03:09:59;;;;;;;;;;;;;;;;;;5043889;28;5114;-60
2024/03/10 03:12:25;;;;;;;;;;;;;;;;;;5050037;28;5145;-60
2024/03/10 03:14:51;;;;;;;;;;;;;;;;;;5051689;28;3340;-60
2024/03/10 03:17:16;;;;;;;;;;;;;;;;;;5047165;28;4844;-60
2024/03/10 03:19:42;;;;;;;;;;;;;;;;;;5047309;28;5537;-60
2024/03/10 03:22:08;;;;;;;;;;;;;;;;;;5058133;28;5175;-60
2024/03/10 03:24:33;;;;;;;;;;;;;;;;;;5053004;28;5127;-60
2024/03/10 03:26:58;;;;;;;;;;;;;;;;;;5053621;28;5112;-61
2024/03/10 03:29:24;;;;;;;;;;;;;;;;;;5047750;28;3391;-61
2024/03/10 03:31:50;;;;;;;;;;;;;;;;;;5049445;28;4654;-60
2024/03/10 03:34:15;;;;;;;;;;;;;;;;;;5030047;28;5107;-60
2024/03/10 03:36:41;;;;;;;;;;;;;;;;;;5044800;28;4643;-61
2024/03/10 03:39:09;;;;;;;;;;;;;;;;;;5049322;28;5089;-60
2024/03/10 03:41:34;;;;;;;;;;;;;;;;;;5056120;28;3551;-60
2024/03/10 03:44:00;;;;;;;;;;;;;;;;;;5047078;28;5080;-60
2024/03/10 03:46:25;;;;;;;;;;;;;;;;;;5050615;28;5096;-60
2024/03/10 03:48:50;;;;;;;;;;;;;;;;;;5054484;28;5195;-61
2024/03/10 03:51:16;;;;;;;;;;;;;;;;;;5038389;28;4575;-61
2024/03/10 03:53:44;;;;;;;;;;;;;;;;;;5054519;28;3403;-61
2024/03/10 03:56:10;;;;;;;;;;;;;;;;;;5047828;28;4967;-60
2024/03/10 03:58:35;;;;;;;;;;;;;;;;;;5054043;28;5013;-61
2024/03/10 04:01:01;;;;;;;;;;;;;;;;;;5048107;28;5095;-61
2024/03/10 04:03:27;;;;;;;;;;;;;;;;;;5053108;28;5059;-61
2024/03/10 04:05:52;;;;;;;;;;;;;;;;;;5058220;28;1148;-61
2024/03/10 04:08:18;;;;;;;;;;;;;;;;;;5026827;28;5068;-60
2024/03/10 04:10:43;;;;;;;;;;;;;;;;;;5051635;28;4952;-61
2024/03/10 04:13:09;;;;;;;;;;;;;;;;;;5049628;28;4871;-61
2024/03/10 04:15:37;;;;;;;;;;;;;;;;;;5053071;28;4493;-60
2024/03/10 04:18:04;;;;;;;;;;;;;;;;;;5050221;28;5155;-60
2024/03/10 04:20:33;;;;;;;;;;;;;;;;;;5047961;28;3347;-60
2024/03/10 04:22:58;;;;;;;;;;;;;;;;;;5066890;28;5462;-60
2024/03/10 04:25:24;;;;;;;;;;;;;;;;;;5045025;28;4675;-60
2024/03/10 04:27:49;;;;;;;;;;;;;;;;;;5058189;28;4890;-60
2024/03/10 04:30:16;;;;;;;;;;;;;;;;;;5050456;28;4953;-60
2024/03/10 04:32:41;;;;;;;;;;;;;;;;;;5047193;28;3066;-61
2024/03/10 04:35:07;;;;;;;;;;;;;;;;;;5057920;28;5019;-60
2024/03/10 04:37:32;;;;;;;;;;;;;;;;;;5051106;28;4518;-60
2024/03/10 04:39:58;;;;;;;;;;;;;;;;;;5038253;28;5220;-60
2024/03/10 04:42:24;;;;;;;;;;;;;;;;;;5051707;28;4667;-60
2024/03/10 04:44:49;;;;;;;;;;;;;;;;;;5048850;28;1176;-60
2024/03/10 04:47:14;;;;;;;;;;;;;;;;;;5047551;28;5316;-60
2024/03/10 04:49:40;;;;;;;;;;;;;;;;;;5035029;28;5079;-60
2024/03/10 04:52:08;;;;;;;;;;;;;;;;;;5059170;28;4794;-60
2024/03/10 04:54:34;;;;;;;;;;;;;;;;;;5057944;28;5311;-59
2024/03/10 04:56:59;;;;;;;;;;;;;;;;;;5042787;28;5118;-60
2024/03/10 04:59:25;;;;;;;;;;;;;;;;;;5046407;28;3464;-60
2024/03/10 05:01:51;;;;;;;;;;;;;;;;;;5050500;28;5060;-60
2024/03/10 05:04:18;;;;;;;;;;;;;;;;;;5057952;28;5207;-61
2024/03/10 05:06:44;;;;;;;;;;;;;;;;;;5055189;28;4703;-60
2024/03/10 05:09:09;;;;;;;;;;;;;;;;;;5041177;28;4601;-60
2024/03/10 05:11:35;;;;;;;;;;;;;;;;;;5041919;28;3423;-60
2024/03/10 05:14:00;;;;;;;;;;;;;;;;;;5040529;28;4651;-61
2024/03/10 05:16:26;;;;;;;;;;;;;;;;;;5025134;28;4523;-61
2024/03/10 05:18:51;;;;;;;;;;;;;;;;;;5053042;28;4623;-61
2024/03/10 05:21:17;;;;;;;;;;;;;;;;;;5050720;28;4921;-61
2024/03/10 05:23:42;;;;;;;;;;;;;;;;;;5051512;28;3572;-61
2024/03/10 05:26:07;;;;;;;;;;;;;;;;;;5042839;28;4927;-61
2024/03/10 05:28:33;;;;;;;;;;;;;;;;;;5049137;28;5013;-61
2024/03/10 05:30:58;;;;;;;;;;;;;;;;;;5042590;28;5152;-61
2024/03/10 05:33:23;;;;;;;;;;;;;;;;;;5052258;28;5054;-60
2024/03/10 05:35:49;;;;;;;;;;;;;;;;;;5061617;28;3579;-61
2024/03/10 05:38:15;;;;;;;;;;;;;;;;;;5041813;28;5000;-61
2024/03/10 05:40:41;;;;;;;;;;;;;;;;;;5047175;28;5185;-61
2024/03/10 05:43:06;;;;;;;;;;;;;;;;;;5047357;28;5139;-60
2024/03/10 05:45:32;;;;;;;;;;;;;;;;;;5060397;28;5138;-60
2024/03/10 05:47:57;;;;;;;;;;;;;;;;;;5045204;28;5382;-60
2024/03/10 05:50:23;;;;;;;;;;;;;;;;;;5042610;28;3391;-60
2024/03/10 05:52:49;;;;;;;;;;;;;;;;;;5051982;28;4556;-60
2024/03/10 05:55:15;;;;;;;;;;;;;;;;;;5044202;28;4956;-60
2024/03/10 05:57:41;;;;;;;;;;;;;;;;;;5047340;28;5124;-61
2024/03/10 06:00:13;;;;;;;;;;;;;;;;;;5052437;28;5082;-60
2024/03/10 06:02:39;;;;;;;;;;;;;;;;;;5038839;28;3487;-60
2024/03/10 06:05:05;;;;;;;;;;;;;;;;;;5042601;28;5210;-61
2024/03/10 06:07:30;;;;;;;;;;;;;;;;;;5049853;28;5103;-60
2024/03/10 06:09:56;;;;;;;;;;;;;;;;;;5041091;28;5570;-61
2024/03/10 06:12:21;;;;;;;;;;;;;;;;;;5058083;28;5114;-60
2024/03/10 06:14:46;;;;;;;;;;;;;;;;;;5054677;28;3514;-60
2024/03/10 06:17:13;;;;;;;;;;;;;;;;;;5055322;28;4461;-60
2024/03/10 06:25:27;;;;;;;;;;;;;;;;;;5043773;28;4573;-60
2024/03/10 06:27:52;;;;;;;;;;;;;;;;;;5041782;28;5189;-60
2024/03/10 06:30:19;;;;;;;;;;;;;;;;;;5044540;28;5144;-61
2024/03/10 06:32:45;;;;;;;;;;;;;;;;;;5043517;28;3398;-60
2024/03/10 06:35:10;;;;;;;;;;;;;;;;;;5047649;28;4913;-59
2024/03/10 06:37:36;;;;;;;;;;;;;;;;;;5051943;28;5078;-60
2024/03/10 06:40:03;;;;;;;;;;;;;;;;;;5057266;28;4471;-60
2024/03/10 06:42:28;;;;;;;;;;;;;;;;;;5054227;28;5322;-60
2024/03/10 06:44:53;;;;;;;;;;;;;;;;;;5053665;28;3364;-60
2024/03/10 06:47:20;;;;;;;;;;;;;;;;;;5048681;28;4469;-60
2024/03/10 06:49:47;;;;;;;;;;;;;;;;;;5047689;28;5136;-60
2024/03/10 06:52:13;;;;;;;;;;;;;;;;;;5045113;28;4886;-60
2024/03/10 06:54:39;;;;;;;;;;;;;;;;;;5019447;28;5151;-59
2024/03/10 06:57:04;;;;;;;;;;;;;;;;;;5047460;28;5033;-61
2024/03/10 06:59:30;;;;;;;;;;;;;;;;;;5049794;28;3276;-62
2024/03/10 07:01:55;;;;;;;;;;;;;;;;;;5063161;28;4441;-61
2024/03/10 07:04:20;;;;;;;;;;;;;;;;;;5057211;28;5202;-62
2024/03/10 07:06:50;;;;;;;;;;;;;;;;;;5046832;28;4991;-62
2024/03/10 07:09:15;;;;;;;;;;;;;;;;;;5043441;28;5369;-61
2024/03/10 07:11:41;;;;;;;;;;;;;;;;;;5053657;28;3570;-61
2024/03/10 07:14:07;;;;;;;;;;;;;;;;;;5032079;28;4869;-63
2024/03/10 07:16:32;;;;;;;;;;;;;;;;;;5044239;28;5028;-62
2024/03/10 07:18:58;;;;;;;;;;;;;;;;;;5048603;28;5064;-62
2024/03/10 07:21:23;;;;;;;;;;;;;;;;;;5060941;28;5207;-62
2024/03/10 07:23:48;;;;;;;;;;;;;;;;;;5049790;28;1981;-62
2024/03/10 07:26:14;;;;;;;;;;;;;;;;;;5047294;28;5063;-65
2024/03/10 07:28:39;;;;;;;;;;;;;;;;;;5062642;28;5112;-64
2024/03/10 07:31:05;;;;;;;;;;;;;;;;;;5033558;28;5036;-62
2024/03/10 07:33:33;;;;;;;;;;;;;;;;;;5063154;28;5162;-66
2024/03/10 07:35:59;;;;;;;;;;;;;;;;;;5042180;28;4648;-67
2024/03/10 07:38:24;;;;;;;;;;;;;;;;;;5054836;28;3431;-68
2024/03/10 07:40:49;;;;;;;;;;;;;;;;;;5053831;28;5057;-63
2024/03/10 07:43:15;;;;;;;;;;;;;;;;;;5040589;28;5160;-62
2024/03/10 07:45:42;;;;;;;;;;;;;;;;;;5045086;28;4511;-65
2024/03/10 07:48:07;;;;;;;;;;;;;;;;;;5047790;28;5146;-66
2024/03/10 07:50:35;;;;;;;;;;;;;;;;;;5041884;28;3579;-64
2024/03/10 07:53:00;;;;;;;;;;;;;;;;;;5041387;28;5168;-65
2024/03/10 07:55:30;;;;;;;;;;;;;;;;;;5043290;28;5066;-66
2024/03/10 07:57:55;;;;;;;;;;;;;;;;;;5047968;28;5218;-66
2024/03/10 08:00:22;;;;;;;;;;;;;;;;;;5035221;28;5176;-67
2024/03/10 08:02:47;;;;;;;;;;;;;;;;;;5037331;28;3674;-64
2024/03/10 08:05:13;;;;;;;;;;;;;;;;;;5048080;28;5165;-63
2024/03/10 08:07:38;;;;;;;;;;;;;;;;;;5038507;28;5368;-65
2024/03/10 08:10:05;;;;;;;;;;;;;;;;;;5035170;28;4964;-64
2024/03/10 08:12:31;;;;;;;;;;;;;;;;;;5035812;28;4521;-67
2024/03/10 08:14:56;;;;;;;;;;;;;;;;;;5043760;28;3601;-66
2024/03/10 08:17:22;;;;;;;;;;;;;;;;;;5037871;28;5010;-65
2024/03/10 08:19:47;;;;;;;;;;;;;;;;;;5039557;28;5166;-60
2024/03/10 08:22:13;;;;;;;;;;;;;;;;;;5040764;28;4822;-60
2024/03/10 08:24:38;;;;;;;;;;;;;;;;;;5045873;28;5441;-60
2024/03/10 08:27:04;;;;;;;;;;;;;;;;;;5044155;28;4610;-60
2024/03/10 08:29:29;;;;;;;;;;;;;;;;;;5048226;28;1314;-60
2024/03/10 08:31:55;;;;;;;;;;;;;;;;;;5039596;28;4980;-59
2024/03/10 08:34:20;;;;;;;;;;;;;;;;;;5045668;28;4690;-60
2024/03/10 08:36:45;;;;;;;;;;;;;;;;;;5045443;28;5156;-60
2024/03/10 08:39:15;;;;;;;;;;;;;;;;;;5040275;28;4698;-60
2024/03/10 08:41:41;;;;;;;;;;;;;;;;;;5048298;28;3739;-60
2024/03/10 08:44:07;;;;;;;;;;;;;;;;;;5044199;28;4512;-60
2024/03/10 08:46:32;;;;;;;;;;;;;;;;;;5041654;28;5092;-60
2024/03/10 08:48:58;;;;;;;;;;;;;;;;;;5040765;28;4697;-59
2024/03/10 08:51:23;;;;;;;;;;;;;;;;;;5046287;28;5068;-60
2024/03/10 08:53:49;;;;;;;;;;;;;;;;;;5044435;28;3586;-60
2024/03/10 08:56:14;;;;;;;;;;;;;;;;;;5039147;28;4916;-62
2024/03/10 08:58:39;;;;;;;;;;;;;;;;;;5047228;28;4523;-61
2024/03/10 09:01:05;;;;;;;;;;;;;;;;;;5027078;28;5189;-61
2024/03/10 09:03:32;;;;;;;;;;;;;;;;;;5045299;28;5143;-61
2024/03/10 09:05:58;;;;;;;;;;;;;;;;;;5055208;28;4484;-59
2024/03/10 09:08:23;;;;;;;;;;;;;;;;;;5055373;28;3595;-61
2024/03/10 09:10:48;;;;;;;;;;;;;;;;;;5045419;28;4906;-61
2024/03/10 09:13:14;;;;;;;;;;;;;;;;;;5043741;28;4871;-61
2024/03/10 09:15:40;;;;;;;;;;;;;;;;;;5031824;28;5447;-61
2024/03/10 09:18:05;;;;;;;;;;;;;;;;;;5045216;28;5104;-61
2024/03/10 09:20:31;;;;;;;;;;;;;;;;;;5032355;28;3454;-61
2024/03/10 09:22:57;;;;;;;;;;;;;;;;;;5057550;28;4494;-62
2024/03/10 09:25:22;;;;;;;;;;;;;;;;;;5052976;28;4880;-61
2024/03/10 09:27:51;;;;;;;;;;;;;;;;;;5042228;28;5110;-61
2024/03/10 09:30:18;;;;;;;;;;;;;;;;;;5045830;28;5137;-61
2024/03/10 09:32:49;;;;;;;;;;;;;;;;;;5038970;28;3932;-64
2024/03/10 09:35:18;;;;;;;;;;;;;;;;;;5046397;28;4912;-65
2024/03/10 09:37:43;;;;;;;;;;;;;;;;;;5053382;28;5123;-63
2024/03/10 09:40:09;;;;;;;;;;;;;;;;;;5052131;28;5110;-65
2024/03/10 09:42:35;;;;;;;;;;;;;;;;;;5052500;28;5071;-65
2024/03/10 09:45:00;;;;;;;;;;;;;;;;;;5043657;28;5201;-65
2024/03/10 09:47:26;;;;;;;;;;;;;;;;;;5050304;28;1238;-65
2024/03/10 09:49:52;;;;;;;;;;;;;;;;;;5039925;28;5189;-65
2024/03/10 09:52:18;;;;;;;;;;;;;;;;;;5045989;28;4464;-67
2024/03/10 09:54:43;;;;;;;;;;;;;;;;;;5021781;28;5108;-66
2024/03/10 09:57:08;;;;;;;;;;;;;;;;;;5038043;28;5068;-66
2024/03/10 09:59:42;;;;;;;;;;;;;;;;;;5036061;28;3772;-66
2024/03/10 10:02:13;;;;;;;;;;;;;;;;;;5039644;28;5046;-66
2024/03/10 10:04:41;;;;;;;;;;;;;;;;;;5043802;28;4495;-67
2024/03/10 10:07:08;;;;;;;;;;;;;;;;;;5064429;28;5241;-64
2024/03/10 10:09:34;;;;;;;;;;;;;;;;;;5045424;28;5323;-64
2024/03/10 10:12:01;;;;;;;;;;;;;;;;;;5045323;28;5101;-64
2024/03/10 10:14:29;;;;;;;;;;;;;;;;;;5046830;28;3485;-65
2024/03/10 10:16:55;;;;;;;;;;;;;;;;;;5041030;28;5188;-65
2024/03/10 10:19:27;;;;;;;;;;;;;;;;;;5041274;28;4543;-65
2024/03/10 10:21:52;;;;;;;;;;;;;;;;;;5046750;28;5168;-64
2024/03/10 10:24:19;;;;;;;;;;;;;;;;;;5047777;28;4531;-63
2024/03/10 10:27:05;;;;;;;;;;;;;;;;;;5049239;28;3431;-65
2024/03/10 10:29:31;;;;;;;;;;;;;;;;;;5043928;28;4567;-65
2024/03/10 10:31:59;;;;;;;;;;;;;;;;;;5050252;28;5105;-65
2024/03/10 10:34:25;;;;;;;;;;;;;;;;;;5048394;28;4914;-65
2024/03/10 10:36:56;;;;;;;;;;;;;;;;;;5046372;28;5294;-64
2024/03/10 10:39:29;;;;;;;;;;;;;;;;;;5044165;28;5650;-65
2024/03/10 10:41:55;;;;;;;;;;;;;;;;;;5041003;28;3583;-64
2024/03/10 10:44:21;;;;;;;;;;;;;;;;;;5026932;28;4969;-65
2024/03/10 10:46:47;;;;;;;;;;;;;;;;;;5046986;28;5089;-63
2024/03/10 10:49:13;;;;;;;;;;;;;;;;;;5062380;28;5125;-65
2024/03/10 10:51:38;;;;;;;;;;;;;;;;;;5050621;28;4974;-64
2024/03/10 10:54:11;;;;;;;;;;;;;;;;;;5042864;28;5043;-65
2024/03/10 10:56:38;;;;;;;;;;;;;;;;;;5047804;28;3358;-64
2024/03/10 10:59:03;;;;;;;;;;;;;;;;;;5049818;28;5139;-64
2024/03/10 11:01:29;;;;;;;;;;;;;;;;;;5055828;28;5118;-64
2024/03/10 11:03:54;;;;;;;;;;;;;;;;;;5055997;28;4637;-65
2024/03/10 11:06:19;;;;;;;;;;;;;;;;;;5064037;28;5090;-63
2024/03/10 11:08:46;;;;;;;;;;;;;;;;;;5044761;28;3444;-64
2024/03/10 11:11:16;;;;;;;;;;;;;;;;;;5025790;28;5056;-67
2024/03/10 11:13:43;;;;;;;;;;;;;;;;;;5044901;28;5103;-66
2024/03/10 11:16:12;;;;;;;;;;;;;;;;;;5023923;28;4525;-66
2024/03/10 11:18:38;;;;;;;;;;;;;;;;;;5029414;28;4994;-69
2024/03/10 11:21:13;;;;;;;;;;;;;;;;;;5031833;28;5098;-66
2024/03/10 11:23:43;;;;;;;;;;;;;;;;;;5031924;28;3134;-67
2024/03/10 11:26:12;;;;;;;;;;;;;;;;;;5038827;28;4422;-68
2024/03/10 11:28:49;;;;;;;;;;;;;;;;;;5031227;28;5152;-68
2024/03/10 11:31:27;;;;;;;;;;;;;;;;;;5032971;28;5090;-68
2024/03/10 11:33:53;;;;;;;;;;;;;;;;;;5025938;28;5172;-68
2024/03/10 11:36:22;;;;;;;;;;;;;;;;;;5030133;28;5555;-67
2024/03/10 11:38:47;;;;;;;;;;;;;;;;;;5037915;28;1235;-67
2024/03/10 11:41:12;;;;;;;;;;;;;;;;;;5022514;28;5083;-68
2024/03/10 11:43:38;;;;;;;;;;;;;;;;;;5037634;28;4490;-68
2024/03/10 11:46:16;;;;;;;;;;;;;;;;;;5033699;28;4683;-68
2024/03/10 11:48:42;;;;;;;;;;;;;;;;;;5035113;28;4990;-68
2024/03/10 11:51:08;;;;;;;;;;;;;;;;;;5022857;28;5117;-67
2024/03/10 11:53:33;;;;;;;;;;;;;;;;;;5034958;28;3600;-68
2024/03/10 11:56:00;;;;;;;;;;;;;;;;;;5034944;28;5075;-68
2024/03/10 11:58:26;;;;;;;;;;;;;;;;;;5037621;28;4633;-67
2024/03/10 12:00:53;;;;;;;;;;;;;;;;;;5029507;28;5243;-68
2024/03/10 12:03:20;;;;;;;;;;;;;;;;;;5036653;28;5180;-66
2024/03/10 12:05:46;;;;;;;;;;;;;;;;;;5022591;28;3351;-68
2024/03/10 12:08:13;;;;;;;;;;;;;;;;;;5061145;28;5037;-68
2024/03/10 12:10:38;;;;;;;;;;;;;;;;;;5045091;28;4674;-68
2024/03/10 12:13:05;;;;;;;;;;;;;;;;;;5050807;28;5586;-68
2024/03/10 12:15:33;;;;;;;;;;;;;;;;;;5041008;28;5020;-68
2024/03/10 12:18:00;;;;;;;;;;;;;;;;;;5056614;28;5037;-68
2024/03/10 12:20:26;;;;;;;;;;;;;;;;;;5056982;28;1429;-68
2024/03/10 12:22:52;;;;;;;;;;;;;;;;;;5048089;28;4517;-68
2024/03/10 12:25:20;;;;;;;;;;;;;;;;;;5057200;28;4922;-67
2024/03/10 12:27:47;;;;;;;;;;;;;;;;;;5013577;28;5189;-67
2024/03/10 12:30:13;;;;;;;;;;;;;;;;;;5051681;28;5113;-67
2024/03/10 12:32:48;;;;;;;;;;;;;;;;;;5053233;28;3284;-68
2024/03/10 12:35:13;;;;;;;;;;;;;;;;;;5061319;28;4991;-68
2024/03/10 12:37:40;;;;;;;;;;;;;;;;;;5037284;28;4949;-68
2024/03/10 12:40:08;;;;;;;;;;;;;;;;;;5068996;28;4726;-69
2024/03/10 12:42:34;;;;;;;;;;;;;;;;;;5051166;28;5154;-68
2024/03/10 12:44:59;;;;;;;;;;;;;;;;;;5048658;28;5130;-67
2024/03/10 12:47:25;;;;;;;;;;;;;;;;;;5050847;28;3206;-68
2024/03/10 12:49:51;;;;;;;;;;;;;;;;;;5055252;28;4853;-68
2024/03/10 12:52:16;;;;;;;;;;;;;;;;;;5049746;28;5265;-68
2024/03/10 12:54:42;;;;;;;;;;;;;;;;;;5053514;28;5092;-68
2024/03/10 12:57:07;;;;;;;;;;;;;;;;;;5048660;28;4666;-68
2024/03/10 12:59:34;;;;;;;;;;;;;;;;;;5065817;28;3360;-66
2024/03/10 13:02:00;;;;;;;;;;;;;;;;;;5049319;28;5217;-68
2024/03/10 13:04:25;;;;;;;;;;;;;;;;;;5055711;28;5089;-68
2024/03/10 13:06:51;;;;;;;;;;;;;;;;;;5054816;28;5045;-67
2024/03/10 13:09:16;;;;;;;;;;;;;;;;;;5055828;28;5011;-68
2024/03/10 13:11:42;;;;;;;;;;;;;;;;;;5049426;28;3372;-68
2024/03/10 13:14:07;;;;;;;;;;;;;;;;;;5052545;28;4642;-68
2024/03/10 13:16:33;;;;;;;;;;;;;;;;;;5054373;28;5066;-68
2024/03/10 13:19:00;;;;;;;;;;;;;;;;;;5075306;28;4769;-68
2024/03/10 13:21:25;;;;;;;;;;;;;;;;;;5051876;28;5218;-67
2024/03/10 13:23:51;;;;;;;;;;;;;;;;;;5062868;28;1905;-68
2024/03/10 13:26:16;;;;;;;;;;;;;;;;;;5047974;28;5042;-68
2024/03/10 13:28:42;;;;;;;;;;;;;;;;;;5051621;28;5121;-69
2024/03/10 13:31:07;;;;;;;;;;;;;;;;;;5053174;28;5125;-68
2024/03/10 13:33:33;;;;;;;;;;;;;;;;;;5056868;28;5117;-67
2024/03/10 13:35:58;;;;;;;;;;;;;;;;;;5061668;28;4990;-68
2024/03/10 13:38:27;;;;;;;;;;;;;;;;;;5061486;28;1171;-67
2024/03/10 13:40:52;;;;;;;;;;;;;;;;;;5055608;28;5283;-68
2024/03/10 13:43:17;;;;;;;;;;;;;;;;;;5063766;28;5130;-68
2024/03/10 13:45:44;;;;;;;;;;;;;;;;;;5060250;28;5023;-69
2024/03/10 13:48:09;;;;;;;;;;;;;;;;;;5063715;28;4685;-68
2024/03/10 13:50:35;;;;;;;;;;;;;;;;;;5055675;28;1560;-67
2024/03/10 13:53:00;;;;;;;;;;;;;;;;;;5053693;28;4980;-68
2024/03/10 13:55:26;;;;;;;;;;;;;;;;;;5060426;28;5122;-68
2024/03/10 13:57:51;;;;;;;;;;;;;;;;;;5054314;28;4954;-67
2024/03/10 14:00:18;;;;;;;;;;;;;;;;;;5059062;28;4968;-67
2024/03/10 14:02:44;;;;;;;;;;;;;;;;;;5059348;28;1942;-68
2024/03/10 14:05:10;;;;;;;;;;;;;;;;;;5064485;28;4580;-67
2024/03/10 14:07:37;;;;;;;;;;;;;;;;;;5057668;28;4474;-68
2024/03/10 14:10:03;;;;;;;;;;;;;;;;;;5056197;28;6048;-68
2024/03/10 14:12:28;;;;;;;;;;;;;;;;;;5066527;28;5105;-68
2024/03/10 14:14:54;;;;;;;;;;;;;;;;;;5053375;28;1168;-68
2024/03/10 14:17:20;;;;;;;;;;;;;;;;;;5044493;28;4559;-67
2024/03/10 14:19:46;;;;;;;;;;;;;;;;;;5058336;28;5103;-68
2024/03/10 14:22:11;;;;;;;;;;;;;;;;;;5051343;28;5053;-69
2024/03/10 14:24:38;;;;;;;;;;;;;;;;;;5050825;28;6056;-68
2024/03/10 14:27:04;;;;;;;;;;;;;;;;;;5066086;28;5060;-67
2024/03/10 14:29:30;;;;;;;;;;;;;;;;;;5056828;28;3347;-68
2024/03/10 14:31:55;;;;;;;;;;;;;;;;;;5054756;28;5023;-68
2024/03/10 14:34:20;;;;;;;;;;;;;;;;;;5055256;28;4974;-66
2024/03/10 14:36:46;;;;;;;;;;;;;;;;;;5064197;28;4680;-68
2024/03/10 14:39:13;;;;;;;;;;;;;;;;;;5063248;28;4871;-67
2024/03/10 14:41:41;;;;;;;;;;;;;;;;;;5067206;28;1116;-69
2024/03/10 14:44:06;;;;;;;;;;;;;;;;;;5057449;28;5067;-68
2024/03/10 14:46:33;;;;;;;;;;;;;;;;;;5051646;28;5094;-68
2024/03/10 14:48:59;;;;;;;;;;;;;;;;;;5058026;28;5038;-65
2024/03/10 14:51:26;;;;;;;;;;;;;;;;;;5047136;28;5201;-68
2024/03/10 14:53:51;;;;;;;;;;;;;;;;;;5057226;28;1148;-67
2024/03/10 14:56:17;;;;;;;;;;;;;;;;;;5050612;28;4916;-67
2024/03/10 14:58:42;;;;;;;;;;;;;;;;;;5056109;28;5069;-67
2024/03/10 15:01:08;;;;;;;;;;;;;;;;;;5059160;28;5290;-67
2024/03/10 15:03:33;;;;;;;;;;;;;;;;;;5061984;28;4678;-67
2024/03/10 15:05:59;;;;;;;;;;;;;;;;;;5064494;28;4506;-67
2024/03/10 15:08:25;;;;;;;;;;;;;;;;;;5059652;28;1379;-67
2024/03/10 15:10:51;;;;;;;;;;;;;;;;;;5056769;28;4954;-67
2024/03/10 15:13:17;;;;;;;;;;;;;;;;;;5060362;28;4501;-68
2024/03/10 15:15:43;;;;;;;;;;;;;;;;;;5035670;28;5152;-67
2024/03/10 15:18:08;;;;;;;;;;;;;;;;;;5051526;28;5099;-65
2024/03/10 15:20:39;;;;;;;;;;;;;;;;;;5047595;28;1390;-68
2024/03/10 15:23:05;;;;;;;;;;;;;;;;;;5059575;28;4936;-67
2024/03/10 15:25:34;;;;;;;;;;;;;;;;;;5063475;28;5730;-68
2024/03/10 15:27:59;;;;;;;;;;;;;;;;;;5061492;28;4494;-68
2024/03/10 15:30:25;;;;;;;;;;;;;;;;;;5058889;28;4883;-68
2024/03/10 15:32:50;;;;;;;;;;;;;;;;;;5058284;28;1123;-68
2024/03/10 15:35:16;;;;;;;;;;;;;;;;;;5063840;28;4818;-68
2024/03/10 15:37:44;;;;;;;;;;;;;;;;;;5057643;28;4889;-69
2024/03/10 15:40:10;;;;;;;;;;;;;;;;;;5045489;28;5055;-68
2024/03/10 15:42:41;;;;;;;;;;;;;;;;;;5060038;28;4673;-68
2024/03/10 15:45:07;;;;;;;;;;;;;;;;;;5056753;28;5565;-68
2024/03/10 15:47:36;;;;;;;;;;;;;;;;;;5052620;28;2069;-68
2024/03/10 15:50:02;;;;;;;;;;;;;;;;;;5034872;28;4694;-68
2024/03/10 15:52:27;;;;;;;;;;;;;;;;;;5048688;28;4888;-66
2024/03/10 15:54:53;;;;;;;;;;;;;;;;;;5057568;28;4895;-68
2024/03/10 15:57:19;;;;;;;;;;;;;;;;;;5060627;28;5123;-67
2024/03/10 15:59:45;;;;;;;;;;;;;;;;;;5056395;28;1041;-68
2024/03/10 16:02:10;;;;;;;;;;;;;;;;;;5060480;28;4862;-68
2024/03/10 16:04:36;;;;;;;;;;;;;;;;;;5059870;28;4478;-68
2024/03/10 16:07:02;;;;;;;;;;;;;;;;;;5058826;28;4728;-68
2024/03/10 16:09:27;;;;;;;;;;;;;;;;;;5054999;28;5022;-68
2024/03/10 16:11:53;;;;;;;;;;;;;;;;;;5063484;28;1171;-67
2024/03/10 16:14:18;;;;;;;;;;;;;;;;;;5053453;28;4630;-68
2024/03/10 16:16:44;;;;;;;;;;;;;;;;;;5049812;28;5106;-68
2024/03/10 16:19:09;;;;;;;;;;;;;;;;;;5056600;28;5020;-68
2024/03/10 16:21:38;;;;;;;;;;;;;;;;;;5043177;28;4625;-68
2024/03/10 16:24:03;;;;;;;;;;;;;;;;;;5040452;28;5123;-67
2024/03/10 16:26:29;;;;;;;;;;;;;;;;;;5057894;28;1210;-68
2024/03/10 16:28:54;;;;;;;;;;;;;;;;;;5052134;28;5336;-67
2024/03/10 16:31:20;;;;;;;;;;;;;;;;;;5048448;28;4891;-67
2024/03/10 16:33:45;;;;;;;;;;;;;;;;;;5062013;28;4550;-67
2024/03/10 16:36:11;;;;;;;;;;;;;;;;;;5063729;28;5141;-68
2024/03/10 16:38:36;;;;;;;;;;;;;;;;;;5059633;28;1085;-67
2024/03/10 16:41:06;;;;;;;;;;;;;;;;;;5054017;28;4811;-67
2024/03/10 16:43:32;;;;;;;;;;;;;;;;;;5039792;28;4586;-67
2024/03/10 16:45:57;;;;;;;;;;;;;;;;;;5043581;28;5053;-67
2024/03/10 16:48:23;;;;;;;;;;;;;;;;;;5024969;28;5983;-67
2024/03/10 16:50:51;;;;;;;;;;;;;;;;;;5036872;28;3296;-67
2024/03/10 16:53:16;;;;;;;;;;;;;;;;;;5037229;28;5183;-68
2024/03/10 16:55:42;;;;;;;;;;;;;;;;;;5053553;28;5344;-67
2024/03/10 16:58:07;;;;;;;;;;;;;;;;;;5041260;28;5028;-68
2024/03/10 17:00:34;;;;;;;;;;;;;;;;;;5038147;28;5164;-68
2024/03/10 17:03:01;;;;;;;;;;;;;;;;;;5024461;28;5200;-67
2024/03/10 17:05:26;;;;;;;;;;;;;;;;;;5047341;28;1570;-67
2024/03/10 17:07:52;;;;;;;;;;;;;;;;;;5023986;28;5226;-67
2024/03/10 17:10:17;;;;;;;;;;;;;;;;;;5005060;28;5057;-67
2024/03/10 17:12:42;;;;;;;;;;;;;;;;;;5019592;28;5174;-68
2024/03/10 17:15:15;;;;;;;;;;;;;;;;;;5027045;28;5256;-66
2024/03/10 17:17:44;;;;;;;;;;;;;;;;;;5027499;28;1311;-68